Terminal Aerodrome Forecast
Issued by NWS Newport/Morehead City, NC

Home | Current Version | Previous Version | Graphics & Text | Print | Product List | Glossary Off
Versions: 1 2 3 4 5 6 7 8 9 10 11 12 13 14 15 16 17 18 19 20 21 22 23

000
FTUS42 KMHX 312341 AAD
TAFEWN
TAF AMD
KEWN 312341Z 0100/0124 08006KT P6SM VCSH SCT025 BKN050
     FM010500 VRB04KT P6SM VCSH OVC025
     FM010700 VRB03KT 6SM BR OVC007
     FM011400 07006KT P6SM OVC015
     FM011600 08007KT P6SM SHRA OVC040=

USA.gov is the U.S. government's official web portal to all federal, state and local government web resources and services.